createdAt,value
2023-01-30T16:51:12.391Z,8.57
2023-01-30T16:52:12.324Z,8.59
2023-01-30T16:53:12.288Z,8.60
2023-01-30T16:54:12.211Z,8.52
2023-01-30T16:55:12.161Z,8.54
2023-01-30T16:56:12.108Z,8.49
2023-01-30T16:57:12.056Z,8.44
2023-01-30T16:58:12.003Z,8.46
2023-01-30T16:59:11.953Z,8.45
2023-01-30T17:00:11.905Z,8.45
2023-01-30T17:01:12.016Z,8.41
2023-01-30T17:02:11.931Z,8.46
2023-01-30T17:03:11.800Z,8.44
2023-01-30T17:04:11.709Z,8.44
2023-01-30T17:05:11.656Z,8.39
2023-01-30T17:06:11.619Z,8.39
2023-01-30T17:07:11.584Z,8.31
2023-01-30T17:08:11.527Z,8.45
2023-01-30T17:09:11.475Z,8.39
2023-01-30T17:10:11.413Z,8.35
2023-01-30T17:11:11.362Z,8.24
2023-01-30T17:12:11.321Z,8.34
2023-01-30T17:13:11.267Z,8.31
2023-01-30T17:14:11.234Z,8.34
2023-01-30T17:15:11.171Z,8.35
2023-01-30T17:16:11.187Z,8.27
2023-01-30T17:17:11.084Z,8.27
2023-01-30T17:18:11.028Z,8.18
2023-01-30T17:19:10.986Z,8.23
2023-01-30T17:20:11.270Z,8.20
2023-01-30T17:21:10.908Z,8.16
2023-01-30T17:22:10.840Z,8.18
2023-01-30T17:23:10.814Z,8.18
2023-01-30T17:24:10.758Z,8.14
2023-01-30T17:25:10.686Z,8.17
2023-01-30T17:26:10.749Z,8.21
2023-01-30T17:27:10.925Z,8.20
2023-01-30T17:28:10.546Z,8.20
2023-01-30T17:29:23.107Z,8.21
2023-01-30T17:30:10.471Z,8.09
2023-01-30T17:40:10.019Z,8.05
2023-01-30T17:41:09.938Z,8.08
2023-01-30T17:42:09.915Z,8.06
2023-01-30T17:43:09.844Z,8.08
2023-01-30T17:44:09.798Z,8.03
2023-01-30T17:45:09.752Z,8.03
2023-01-30T17:46:09.771Z,8.03
2023-01-30T17:47:09.669Z,8.08
2023-01-30T17:48:09.925Z,8.01
2023-01-30T17:50:18.176Z,7.96
2023-01-30T17:51:17.915Z,7.99
2023-01-30T17:52:17.871Z,7.99
2023-01-30T17:53:17.817Z,7.98
2023-01-30T17:54:17.778Z,7.99
2023-01-30T17:55:18.099Z,7.91
2023-01-30T17:56:17.675Z,7.99
2023-01-30T17:57:17.630Z,7.96
2023-01-30T17:58:17.788Z,7.87
2023-01-30T17:59:17.743Z,7.90
2023-01-30T18:00:17.955Z,7.90
2023-01-30T18:01:17.513Z,7.85
2023-01-30T18:02:17.416Z,7.85
2023-01-30T18:03:17.386Z,7.78
2023-01-30T18:04:17.375Z,7.75
2023-01-30T18:05:17.254Z,7.87
2023-01-30T18:06:17.201Z,7.81
2023-01-30T18:07:17.166Z,7.85
2023-01-30T18:08:17.113Z,7.75
2023-01-30T18:09:17.063Z,7.80
2023-01-30T18:10:17.287Z,7.81
2023-01-30T18:11:16.985Z,7.69
2023-01-30T18:12:16.926Z,7.78
2023-01-30T18:13:16.867Z,7.70
2023-01-30T18:14:16.821Z,7.80
2023-01-30T18:15:16.963Z,7.77
2023-01-30T18:16:16.727Z,7.78
2023-01-30T18:17:16.677Z,7.80
2023-01-30T18:18:16.632Z,7.75
2023-01-30T18:19:16.588Z,7.78
2023-01-30T18:20:16.898Z,7.74
2023-01-30T18:21:16.489Z,7.77
2023-01-30T18:22:16.437Z,7.75
2023-01-30T18:23:16.406Z,7.70
2023-01-30T18:24:16.346Z,7.75
2023-01-30T18:25:16.371Z,7.77
2023-01-30T18:26:16.260Z,7.78
2023-01-30T18:27:16.295Z,7.75
2023-01-30T18:28:16.169Z,7.81
2023-01-30T18:29:16.106Z,7.74
2023-01-30T18:30:17.583Z,7.77
2023-01-30T18:31:16.304Z,7.69
2023-01-30T18:32:16.171Z,7.80
2023-01-30T18:33:15.917Z,7.78
2023-01-30T18:34:15.866Z,7.78
2023-01-30T18:35:15.820Z,7.75
2023-01-30T18:36:15.773Z,7.77
2023-01-30T18:37:15.721Z,7.78
2023-01-30T18:38:15.674Z,7.78
2023-01-30T18:39:15.633Z,7.75
2023-01-30T18:40:15.579Z,7.67
2023-01-30T18:41:15.532Z,7.75
2023-01-30T18:42:15.483Z,7.77
2023-01-30T18:43:15.462Z,7.77
2023-01-30T18:44:15.386Z,7.74
2023-01-30T18:45:15.342Z,7.59
2023-01-30T18:46:15.374Z,7.70
2023-01-30T18:47:15.249Z,7.59
2023-01-30T18:48:15.221Z,7.66
2023-01-30T18:49:15.150Z,7.67
2023-01-30T18:50:15.439Z,7.62
2023-01-30T18:51:15.080Z,7.55
2023-01-30T18:52:15.012Z,7.56
2023-01-30T18:53:14.972Z,7.51
2023-01-30T19:13:45.429Z,7.14
2023-01-30T19:20:43.555Z,7.01
2023-01-30T19:21:43.425Z,7.04
2023-01-30T19:22:43.382Z,7.00
2023-01-30T19:35:06.223Z,6.74
2023-01-30T19:36:06.150Z,6.71
2023-01-30T19:37:06.112Z,6.70
2023-01-30T19:38:06.051Z,6.74
2023-01-30T19:39:06.008Z,6.67
2023-01-30T19:40:05.982Z,6.71
2023-01-30T19:51:15.818Z,6.49
2023-01-30T19:59:08.309Z,6.49
2023-01-30T20:18:20.873Z,6.57
2023-01-30T20:19:20.835Z,6.62
2023-01-30T20:20:21.121Z,6.68
2023-01-30T20:21:20.744Z,6.71
2023-01-30T20:22:20.669Z,6.67
2023-01-30T20:23:20.629Z,6.68
2023-01-30T20:24:20.587Z,6.67
2023-01-30T20:38:49.971Z,6.57
2023-01-30T20:40:49.651Z,6.52
2023-01-30T20:41:50.367Z,6.56
2023-01-30T20:42:49.581Z,6.49
2023-01-30T20:43:49.509Z,6.44
2023-01-30T20:44:49.450Z,6.60
2023-01-30T20:45:49.404Z,6.52
2023-01-30T20:46:49.429Z,6.50
2023-01-30T20:47:49.319Z,6.44
2023-01-30T20:48:49.493Z,6.47
2023-01-30T20:49:49.227Z,6.39
2023-01-30T20:50:49.167Z,6.44
2023-01-30T20:51:49.437Z,6.49
2023-01-30T20:52:49.084Z,6.49
2023-01-30T20:53:49.061Z,6.43
2023-01-30T20:54:49.033Z,6.47
2023-01-30T20:56:48.959Z,6.41
2023-01-30T20:57:48.853Z,6.44
2023-01-30T20:58:49.142Z,6.41
2023-01-30T20:59:48.784Z,6.39
2023-01-30T21:00:48.725Z,6.38
2023-01-30T21:01:48.707Z,6.35
2023-01-30T21:02:48.718Z,6.36
2023-01-30T21:03:48.828Z,6.32
2023-01-30T21:04:48.553Z,6.39
2023-01-30T21:05:48.512Z,6.35
